Time;durP1;ratioP1;P1;durP2;ratioP2;P2;SDS_P1;SDS_P2;PMS_P1;PMS_P2;Temp;Humidity;BMP_temperature;BMP_pressure;BME280_temperature;BME280_humidity;BME280_pressure;Samples;Min_cycle;Max_cycle;Signal;HPM_P1;HPM_P2
2022/03/15 00:02:25;;;;;;;21.17;11.70;;;;;;;29.60;62.79;100745.38;5067964;28;65897;-40
2022/03/15 00:04:56;;;;;;;18.27;12.00;;;;;;;29.80;64.36;100778.56;5067517;28;70262;-41
2022/03/15 00:07:28;;;;;;;20.52;11.82;;;;;;;29.83;65.21;100785.44;5062325;28;67227;-41
2022/03/15 00:10:00;;;;;;;30.77;12.45;;;;;;;29.89;64.78;100781.84;5073861;28;69879;-41
2022/03/15 00:12:31;;;;;;;17.90;11.95;;;;;;;29.89;67.29;100791.84;5049652;28;66041;-40
2022/03/15 00:15:02;;;;;;;15.55;10.13;;;;;;;29.89;67.61;100791.84;5068977;28;70507;-42
2022/03/15 00:17:33;;;;;;;15.88;9.27;;;;;;;29.89;67.84;100798.06;5082173;27;66582;-42
2022/03/15 00:20:05;;;;;;;17.70;10.38;;;;;;;29.90;69.21;100796.22;5069667;28;70678;-42
2022/03/15 00:22:36;;;;;;;;;;;;;;;29.63;70.22;100801.72;5070492;28;66593;-38
2022/03/15 00:25:17;;;;;;;24.48;11.15;;;;;;;29.51;67.79;100728.56;5061277;28;70448;-41
2022/03/15 00:27:53;;;;;;;16.60;10.15;;;;;;;29.94;67.77;100797.44;5082286;28;65469;-42
2022/03/15 00:30:25;;;;;;;14.23;8.98;;;;;;;29.97;67.01;100795.13;5060714;28;69559;-42
2022/03/15 00:32:56;;;;;;;15.30;9.83;;;;;;;30.08;67.12;100815.25;5076897;28;65805;-42
2022/03/15 00:35:27;;;;;;;16.48;9.02;;;;;;;30.10;67.37;100810.47;5074849;28;69962;-42
2022/03/15 00:37:57;;;;;;;19.70;9.85;;;;;;;30.16;64.45;100806.88;5077913;28;67213;-42
2022/03/15 00:40:29;;;;;;;13.20;7.65;;;;;;;30.22;62.69;100797.09;5073911;28;70178;-41
2022/03/15 00:43:00;;;;;;;13.02;8.05;;;;;;;30.14;62.22;100768.38;5057063;28;67133;-40
2022/03/15 00:45:31;;;;;;;19.13;8.30;;;;;;;30.50;62.42;100821.06;5070341;28;69902;-40
2022/03/15 00:48:03;;;;;;;12.98;7.60;;;;;;;30.56;62.05;100809.34;5043601;28;65163;-41
2022/03/15 00:50:39;;;;;;;11.77;7.97;;;;;;;30.61;61.67;100805.97;5071034;28;69292;-41
2022/03/15 00:53:10;;;;;;;11.88;7.82;;;;;;;30.69;61.09;100813.84;5076838;28;66497;-41
2022/03/15 00:55:44;;;;;;;9.75;7.68;;;;;;;30.76;61.06;100819.19;5081641;28;70300;-41
2022/03/15 00:58:15;;;;;;;13.63;7.43;;;;;;;30.78;60.76;100801.66;5066195;28;66770;-41
2022/03/15 01:00:48;;;;;;;8.20;7.40;;;;;;;30.81;60.69;100800.44;5072546;27;70114;-42
2022/03/15 01:03:19;;;;;;;8.20;7.40;;;;;;;30.90;60.59;100820.78;5075003;28;66243;-41
2022/03/15 01:05:52;;;;;;;10.57;7.32;;;;;;;30.92;60.44;100824.09;5065773;28;70254;-40
2022/03/15 01:08:23;;;;;;;10.18;7.03;;;;;;;30.91;60.41;100817.03;5082034;28;65970;-40
2022/03/15 01:10:54;;;;;;;7.93;7.13;;;;;;;30.95;60.20;100818.22;5080850;28;70399;-41
2022/03/15 01:13:29;;;;;;;7.63;6.90;;;;;;;31.04;59.82;100827.75;5070507;28;66056;-41
2022/03/15 01:15:59;;;;;;;7.88;6.88;;;;;;;31.01;59.83;100822.78;5077972;28;70545;-41
2022/03/15 01:18:32;;;;;;;7.60;6.80;;;;;;;31.09;60.02;100830.63;5077129;28;65154;-41
2022/03/15 01:21:03;;;;;;;9.73;6.80;;;;;;;31.06;59.94;100822.91;5063165;28;69634;-41
2022/03/15 01:23:34;;;;;;;7.40;6.50;;;;;;;31.14;59.57;100838.88;5065527;27;66045;-41
2022/03/15 01:26:05;;;;;;;10.40;6.28;;;;;;;31.16;59.72;100830.53;5075980;27;70670;-41
2022/03/15 01:28:37;;;;;;;7.05;6.35;;;;;;;31.11;58.66;100828.50;5071338;27;66532;-41
2022/03/15 01:31:08;;;;;;;7.93;6.82;;;;;;;31.21;58.79;100838.00;5061719;28;70404;-41
2022/03/15 01:33:39;;;;;;;6.90;6.20;;;;;;;31.27;58.55;100840.63;5051526;28;66319;-41
2022/03/15 01:36:09;;;;;;;8.55;5.97;;;;;;;31.19;58.76;100819.25;5066852;28;71259;-42
2022/03/15 01:38:40;;;;;;;6.78;6.07;;;;;;;31.23;58.23;100825.03;5080041;27;65782;-41
2022/03/15 01:41:11;;;;;;;6.45;5.85;;;;;;;31.32;58.58;100832.66;5065354;27;69268;-41
2022/03/15 01:43:42;;;;;;;8.48;6.18;;;;;;;31.28;58.29;100827.91;5073994;28;66453;-41
2022/03/15 01:46:16;;;;;;;6.40;5.80;;;;;;;31.39;58.31;100840.75;5057134;28;69913;-41
2022/03/15 01:48:47;;;;;;;8.73;6.00;;;;;;;31.36;57.81;100833.06;5071124;28;66317;-41
2022/03/15 01:51:19;;;;;;;6.43;5.83;;;;;;;31.41;57.71;100838.66;5073361;28;70120;-41
2022/03/15 01:53:50;;;;;;;8.65;5.15;;;;;;;31.45;57.41;100845.25;5081144;28;65856;-42
2022/03/15 01:56:21;;;;;;;7.37;6.10;;;;;;;31.45;57.48;100847.97;5067119;28;69011;-42
2022/03/15 01:58:56;;;;;;;6.72;6.13;;;;;;;31.37;57.13;100834.72;5066689;28;43368;-41
2022/03/15 02:01:27;;;;;;;5.78;5.20;;;;;;;31.50;57.06;100858.97;5062171;28;70275;-42
2022/03/15 02:04:00;;;;;;;5.97;5.53;;;;;;;31.22;56.65;100813.38;5080200;28;65610;-42
2022/03/15 02:06:34;;;;;;;5.80;5.30;;;;;;;31.41;56.81;100838.66;5068166;28;69652;-44
2022/03/15 02:09:13;;;;;;;6.57;5.88;;;;;;;31.47;56.59;100854.00;5078642;28;66414;-42
2022/03/15 02:11:46;;;;;;;6.05;5.45;;;;;;;31.61;56.38;100871.78;5066948;28;70172;-42
2022/03/15 02:14:17;;;;;;;6.03;5.40;;;;;;;31.58;56.47;100860.56;5060325;28;66596;-41
2022/03/15 02:16:48;;;;;;;6.65;6.05;;;;;;;31.65;56.58;100866.75;5074237;27;70199;-41
2022/03/15 02:19:19;;;;;;;5.63;5.20;;;;;;;31.61;56.32;100866.34;5060625;28;67020;-41
2022/03/15 02:21:51;;;;;;;;;;;;;;;31.36;56.64;100874.56;5072951;28;69263;-42
2022/03/15 02:24:21;;;;;;;5.82;5.32;;;;;;;31.69;56.28;100877.97;5066095;28;66682;-41
2022/03/15 02:26:52;;;;;;;5.57;5.07;;;;;;;31.70;55.89;100868.78;5068438;28;70468;-41
2022/03/15 02:29:23;;;;;;;5.78;5.22;;;;;;;31.78;55.65;100879.31;5072025;28;65662;-41
2022/03/15 02:31:54;;;;;;;5.63;5.13;;;;;;;31.78;55.47;100872.00;5071127;28;69964;-41
2022/03/15 02:34:26;;;;;;;5.43;4.97;;;;;;;31.77;55.62;100864.13;5066102;28;66849;-41
2022/03/15 02:36:57;;;;;;;6.00;5.50;;;;;;;31.83;55.09;100864.03;5067995;28;69478;-41
2022/03/15 02:39:29;;;;;;;5.47;5.07;;;;;;;31.86;55.09;100861.91;5073746;28;66606;-42
2022/03/15 02:42:01;;;;;;;5.32;4.90;;;;;;;31.88;54.90;100862.53;5070389;28;70031;-41
2022/03/15 02:44:31;;;;;;;5.77;5.23;;;;;;;31.90;54.99;100861.25;5076378;28;65433;-41
2022/03/15 02:47:03;;;;;;;5.70;5.30;;;;;;;31.93;55.16;100852.69;5070465;28;70416;-41
2022/03/15 02:49:34;;;;;;;8.63;5.25;;;;;;;31.90;54.92;100847.69;5065834;28;65225;-41
2022/03/15 02:52:05;;;;;;;6.47;5.85;;;;;;;31.97;55.35;100843.00;5068641;28;69837;-42
2022/03/15 02:54:41;;;;;;;5.90;5.50;;;;;;;31.98;55.01;100836.56;5059156;28;64622;-41
2022/03/15 02:57:12;;;;;;;6.57;5.68;;;;;;;32.01;54.99;100838.81;5064981;28;69918;-41
2022/03/15 02:59:43;;;;;;;6.90;5.53;;;;;;;31.97;54.75;100825.91;5079941;28;65648;-41
2022/03/15 03:02:14;;;;;;;5.72;5.25;;;;;;;32.02;54.82;100834.19;5065210;28;69748;-41
2022/03/15 03:04:45;;;;;;;5.00;4.63;;;;;;;32.08;54.58;100843.31;5077942;28;65522;-41
2022/03/15 03:07:18;;;;;;;5.95;5.43;;;;;;;31.95;54.48;100806.31;5078750;28;70750;-42
2022/03/15 03:09:49;;;;;;;6.05;5.43;;;;;;;32.11;54.54;100834.72;5068361;28;66414;-42
2022/03/15 03:12:20;;;;;;;5.93;5.43;;;;;;;32.17;54.66;100836.50;5078859;27;70403;-41
2022/03/15 03:14:53;;;;;;;5.82;5.30;;;;;;;32.18;54.33;100840.84;5067159;28;65637;-41
2022/03/15 03:17:24;;;;;;;4.85;4.47;;;;;;;32.16;54.32;100821.28;5066072;27;70127;-41
2022/03/15 03:19:55;;;;;;;5.75;5.03;;;;;;;32.15;54.26;100819.59;5074987;28;65799;-41
2022/03/15 03:22:28;;;;;;;5.40;5.00;;;;;;;32.24;54.04;100821.78;5083610;28;70134;-41
2022/03/15 03:24:58;;;;;;;5.88;5.18;;;;;;;32.27;54.16;100815.06;5082267;28;66935;-41
2022/03/15 03:27:30;;;;;;;5.75;5.35;;;;;;;32.22;53.98;100806.78;5079944;28;69826;-42
2022/03/15 03:30:02;;;;;;;5.15;4.68;;;;;;;32.25;53.99;100809.03;5073439;28;67444;-41
2022/03/15 03:32:35;;;;;;;5.85;5.20;;;;;;;32.32;53.80;100814.34;5068198;28;69791;-42
2022/03/15 03:35:07;;;;;;;6.13;5.00;;;;;;;32.34;53.82;100810.34;5082398;28;65442;-42
2022/03/15 03:37:38;;;;;;;5.38;4.88;;;;;;;32.34;53.77;100804.91;5081137;28;69306;-42
2022/03/15 03:40:09;;;;;;;7.05;4.47;;;;;;;32.37;53.88;100799.00;5071988;28;66860;-42
2022/03/15 03:42:41;;;;;;;7.40;5.47;;;;;;;32.40;53.70;100795.88;5065982;28;70115;-42
2022/03/15 03:45:12;;;;;;;5.45;4.95;;;;;;;32.42;53.62;100788.28;5071146;28;64551;-42
2022/03/15 03:47:43;;;;;;;4.55;4.25;;;;;;;32.42;53.64;100785.56;5068041;28;69313;-41
2022/03/15 03:50:13;;;;;;;5.95;5.35;;;;;;;32.43;53.66;100779.09;5081980;28;65691;-41
2022/03/15 03:52:45;;;;;;;5.20;4.70;;;;;;;32.43;53.47;100765.53;5067254;28;68934;-41
2022/03/15 03:55:15;;;;;;;5.07;4.67;;;;;;;32.38;53.53;100751.81;5064836;28;66272;-40
2022/03/15 03:57:46;;;;;;;5.15;4.75;;;;;;;32.49;53.29;100764.63;5072197;28;69552;-40
2022/03/15 04:00:17;;;;;;;5.43;4.93;;;;;;;32.51;53.25;100760.84;5077438;27;65965;-42
2022/03/15 04:02:48;;;;;;;5.22;4.78;;;;;;;32.51;53.44;100753.50;5054416;28;69903;-41
2022/03/15 04:05:20;;;;;;;6.65;5.40;;;;;;;32.45;52.99;100736.22;5064023;28;66145;-41
2022/03/15 04:07:51;;;;;;;5.60;4.82;;;;;;;32.49;52.98;100737.47;5070722;28;69686;-41
2022/03/15 04:10:22;;;;;;;5.32;4.82;;;;;;;32.55;53.58;100738.41;5079171;28;66067;-40
2022/03/15 04:12:54;;;;;;;5.22;4.72;;;;;;;32.55;53.50;100741.13;5071309;28;69935;-41
2022/03/15 04:15:25;;;;;;;8.07;4.80;;;;;;;32.59;53.30;100742.31;5080204;27;65142;-41
2022/03/15 04:17:56;;;;;;;5.43;4.78;;;;;;;32.30;53.20;100681.59;5075018;27;69892;-41
2022/03/15 04:20:26;;;;;;;6.00;5.50;;;;;;;32.55;53.14;100696.88;5077782;28;66372;-41
2022/03/15 04:22:58;;;;;;;5.80;4.60;;;;;;;32.54;52.74;100693.31;5073090;28;70380;-41
2022/03/15 04:25:29;;;;;;;5.50;5.00;;;;;;;32.62;52.99;100697.56;5077202;28;64977;-42
2022/03/15 04:28:00;;;;;;;5.00;4.60;;;;;;;32.64;52.88;100700.88;5070165;28;69810;-42
2022/03/15 04:30:32;;;;;;;4.95;4.55;;;;;;;32.68;52.71;100685.75;5068421;28;67043;-41
2022/03/15 04:33:03;;;;;;;5.90;5.30;;;;;;;32.69;52.85;100682.78;5083341;27;70028;-40
2022/03/15 04:35:34;;;;;;;5.97;5.50;;;;;;;32.70;52.52;100679.00;5082253;28;66113;-41
2022/03/15 04:38:05;;;;;;;5.55;4.88;;;;;;;32.69;52.83;100665.69;5061180;28;69092;-40
2022/03/15 04:40:37;;;;;;;5.70;5.20;;;;;;;32.74;52.77;100667.69;5079743;28;65756;-41
2022/03/15 04:43:08;;;;;;;5.53;5.13;;;;;;;32.69;52.92;100649.38;5081400;28;70969;-41
2022/03/15 04:45:40;;;;;;;5.50;5.07;;;;;;;32.74;52.71;100641.34;5083037;28;65946;-41
2022/03/15 04:48:13;;;;;;;6.18;5.07;;;;;;;32.79;52.68;100638.75;5076868;28;69798;-41
2022/03/15 04:50:44;;;;;;;5.80;5.25;;;;;;;32.83;52.74;100630.94;5060062;28;66524;-41
2022/03/15 04:53:14;;;;;;;5.72;5.32;;;;;;;32.87;52.60;100641.06;5062841;28;69543;-42
2022/03/15 04:55:46;;;;;;;6.00;5.50;;;;;;;32.87;52.61;100630.19;5082542;28;66649;-41
2022/03/15 04:58:16;;;;;;;6.53;5.93;;;;;;;32.87;52.52;100624.78;5066483;28;70254;-41
2022/03/15 05:00:47;;;;;;;8.18;5.50;;;;;;;32.91;52.45;100620.53;5069796;28;64851;-41
2022/03/15 05:03:19;;;;;;;6.30;5.82;;;;;;;32.91;52.40;100614.25;5081409;28;70526;-42
2022/03/15 05:05:50;;;;;;;6.43;5.80;;;;;;;32.91;52.56;100609.66;5068633;28;67547;-41
2022/03/15 05:08:22;;;;;;;5.90;5.47;;;;;;;32.91;52.45;100597.97;5067860;28;69655;-46
2022/03/15 05:11:06;;;;;;;6.35;5.85;;;;;;;32.98;52.52;100608.69;5060780;28;66615;-41
2022/03/15 05:13:45;;;;;;;6.97;5.45;;;;;;;32.99;52.05;100599.44;5072467;27;70480;-41
2022/03/15 05:16:18;;;;;;;5.80;5.40;;;;;;;32.65;52.23;100529.56;5071199;27;66355;-41
2022/03/15 05:18:51;;;;;;;6.32;5.55;;;;;;;33.03;52.09;100584.38;5076406;27;69633;-42
2022/03/15 05:21:27;;;;;;;6.53;5.93;;;;;;;32.89;51.87;100552.00;5069904;27;66397;-41
2022/03/15 05:23:58;;;;;;;9.95;5.78;;;;;;;33.07;51.80;100570.06;5068544;27;68970;-40
2022/03/15 05:26:28;;;;;;;5.40;4.90;;;;;;;33.08;52.04;100570.88;5074964;27;65597;-40
2022/03/15 05:28:59;;;;;;;6.57;5.88;;;;;;;33.15;52.13;100576.97;5072348;27;70191;-43
2022/03/15 05:31:31;;;;;;;5.75;5.25;;;;;;;33.06;51.94;100562.13;5069674;27;66319;-41
2022/03/15 05:34:01;;;;;;;;;;;;;;;32.84;52.39;100570.91;5065486;27;70444;-41
2022/03/15 05:36:32;;;;;;;5.78;5.38;;;;;;;33.18;51.85;100565.63;5075656;28;66726;-41
2022/03/15 05:39:02;;;;;;;5.55;5.15;;;;;;;33.21;51.91;100567.88;5059685;28;69669;-41
2022/03/15 05:41:35;;;;;;;7.57;6.80;;;;;;;33.10;51.83;100536.13;5066735;28;66589;-40
2022/03/15 05:44:07;;;;;;;6.03;5.55;;;;;;;33.25;51.81;100552.72;5063821;28;70460;-41
2022/03/15 05:46:38;;;;;;;5.72;5.32;;;;;;;33.20;51.80;100541.75;5060569;28;65661;-40
2022/03/15 05:49:09;;;;;;;6.00;5.57;;;;;;;33.28;51.94;100544.06;5060968;28;68812;-41
2022/03/15 05:51:39;;;;;;;6.18;5.68;;;;;;;33.27;51.61;100531.56;5059608;28;65378;-40
2022/03/15 05:54:10;;;;;;;5.80;5.45;;;;;;;33.23;51.53;100518.69;5072338;28;70599;-41
2022/03/15 05:56:41;;;;;;;6.20;5.80;;;;;;;33.32;51.83;100534.38;5061670;28;65064;-41
2022/03/15 05:59:13;;;;;;;7.20;5.95;;;;;;;33.36;51.97;100534.69;5075404;28;68736;-40
2022/03/15 06:01:44;;;;;;;6.70;6.05;;;;;;;33.25;51.50;100517.38;5079625;28;65291;-41
2022/03/15 06:04:15;;;;;;;7.38;5.35;;;;;;;33.40;51.52;100529.56;5060309;28;70127;-40
2022/03/15 06:06:45;;;;;;;5.85;5.35;;;;;;;33.30;51.57;100509.31;5074853;28;65934;-41
2022/03/15 06:09:16;;;;;;;6.50;5.30;;;;;;;33.36;51.67;100508.31;5068713;28;70110;-41
2022/03/15 06:11:47;;;;;;;5.95;5.32;;;;;;;33.44;51.46;100509.00;5066771;28;65827;-41
2022/03/15 06:14:22;;;;;;;6.90;6.18;;;;;;;33.26;51.90;100486.41;5071903;28;69517;-43
2022/03/15 06:16:52;;;;;;;5.93;5.53;;;;;;;33.47;51.60;100501.16;5075136;27;66237;-41
2022/03/15 06:19:23;;;;;;;6.70;6.13;;;;;;;33.52;51.58;100500.44;5066448;28;70099;-41
2022/03/15 06:21:54;;;;;;;6.50;5.57;;;;;;;33.53;51.36;100492.03;5063871;28;65214;-41
2022/03/15 06:24:26;;;;;;;6.40;5.82;;;;;;;33.56;51.61;100488.00;5080441;28;68975;-41
2022/03/15 06:26:58;;;;;;;5.97;5.57;;;;;;;33.59;51.60;100480.16;5067333;28;65655;-41
2022/03/15 06:29:30;;;;;;;6.00;5.43;;;;;;;33.59;51.46;100473.91;5060826;28;70437;-41
2022/03/15 06:32:01;;;;;;;7.43;6.38;;;;;;;33.62;50.99;100467.16;5059687;28;65495;-41
2022/03/15 06:34:51;;;;;;;6.72;6.18;;;;;;;33.66;51.20;100463.69;5071700;28;70407;-41
2022/03/15 06:37:21;;;;;;;7.32;5.47;;;;;;;33.70;50.93;100459.38;5061166;28;67008;-41
2022/03/15 06:39:52;;;;;;;6.40;5.70;;;;;;;33.60;51.23;100432.06;5077843;27;69741;-41
2022/03/15 06:42:40;;;;;;;5.82;5.43;;;;;;;33.74;51.16;100452.38;5079183;28;66761;-41
2022/03/15 06:45:11;;;;;;;6.53;6.00;;;;;;;33.81;51.30;100444.03;5078265;28;69849;-41
2022/03/15 06:47:42;;;;;;;6.13;5.53;;;;;;;33.71;50.84;100422.97;5087448;27;66198;-42
2022/03/15 06:50:13;;;;;;;6.13;5.72;;;;;;;33.89;50.86;100434.63;5077281;28;70084;-42
2022/03/15 06:52:46;;;;;;;7.07;5.85;;;;;;;33.40;51.00;100350.13;5080883;28;65971;-40
2022/03/15 06:55:16;;;;;;;6.25;5.63;;;;;;;33.94;50.90;100437.41;5081735;28;70493;-41
2022/03/15 06:58:03;;;;;;;6.75;6.18;;;;;;;33.98;51.09;100427.66;5079310;28;65388;-41
2022/03/15 07:00:34;;;;;;;6.60;5.78;;;;;;;34.00;50.86;100417.34;5080051;28;69804;-42
2022/03/15 07:03:05;;;;;;;6.22;5.72;;;;;;;33.99;50.64;100404.81;5079216;28;64353;-42
2022/03/15 07:05:36;;;;;;;5.63;5.07;;;;;;;34.06;50.78;100421.81;5081320;28;71486;-42
2022/03/15 07:08:07;;;;;;;;;;;;;;;33.78;51.28;100412.72;5079859;28;66691;-41
2022/03/15 07:10:38;;;;;;;5.57;5.20;;;;;;;34.11;50.62;100411.00;5086747;28;70266;-42
2022/03/15 07:13:09;;;;;;;5.75;5.35;;;;;;;34.09;50.40;100396.81;5075446;28;66391;-42
2022/03/15 07:15:39;;;;;;;5.97;5.57;;;;;;;34.10;50.34;100393.03;5080381;28;70163;-41
2022/03/15 07:18:10;;;;;;;5.82;5.43;;;;;;;34.25;50.26;100412.25;5078943;27;65682;-41
2022/03/15 07:20:41;;;;;;;6.00;5.60;;;;;;;34.29;50.25;100400.84;5070937;28;69140;-41
2022/03/15 07:23:12;;;;;;;6.03;5.63;;;;;;;34.35;50.34;100410.72;5077352;28;66451;-41
2022/03/15 07:25:42;;;;;;;6.25;5.50;;;;;;;34.12;50.07;100362.81;5066074;28;70112;-41
2022/03/15 07:28:13;;;;;;;5.88;5.38;;;;;;;34.42;50.07;100397.72;5085798;28;66555;-41
2022/03/15 07:30:44;;;;;;;6.07;5.68;;;;;;;34.43;50.36;100396.63;5086487;28;70465;-41
2022/03/15 07:33:14;;;;;;;5.88;5.57;;;;;;;34.39;50.25;100380.00;5084269;28;65320;-41
2022/03/15 07:35:45;;;;;;;5.65;5.15;;;;;;;34.47;50.17;100379.53;5085762;27;69892;-41
2022/03/15 07:38:17;;;;;;;8.05;5.45;;;;;;;34.57;50.06;100388.91;5086759;27;66334;-41
2022/03/15 07:40:49;;;;;;;6.53;5.05;;;;;;;34.51;50.07;100382.56;5084629;28;70630;-41
2022/03/15 07:43:23;;;;;;;5.60;5.10;;;;;;;34.56;50.11;100379.13;5073953;28;66527;-41
2022/03/15 07:45:54;;;;;;;5.85;5.40;;;;;;;34.66;49.96;100382.75;5101933;27;69647;-41
2022/03/15 07:48:25;;;;;;;5.68;5.30;;;;;;;34.65;49.73;100378.38;5078031;28;64961;-41
2022/03/15 07:50:58;;;;;;;6.78;5.80;;;;;;;34.69;49.65;100365.09;5065043;28;69971;-41
2022/03/15 07:53:30;;;;;;;7.00;6.53;;;;;;;34.70;49.78;100364.81;5084464;27;66598;-41
2022/03/15 07:56:01;;;;;;;7.60;5.93;;;;;;;34.82;49.97;100382.88;5086294;27;70543;-41
2022/03/15 07:58:31;;;;;;;5.72;5.32;;;;;;;34.87;49.56;100388.38;5079724;27;65690;-40
2022/03/15 08:01:02;;;;;;;5.70;5.30;;;;;;;34.90;49.40;100379.69;5070662;28;70150;-41
2022/03/15 08:03:33;;;;;;;5.60;5.10;;;;;;;34.81;49.86;100365.72;5082008;27;66435;-41
2022/03/15 08:06:04;;;;;;;5.28;4.75;;;;;;;34.92;49.19;100372.06;5081976;28;69977;-41
2022/03/15 08:08:36;;;;;;;4.82;4.53;;;;;;;34.90;49.72;100363.34;5079967;28;65652;-41
2022/03/15 08:11:08;;;;;;;5.82;5.32;;;;;;;35.05;49.26;100377.09;5043534;28;69944;-41
2022/03/15 08:13:38;;;;;;;5.00;4.70;;;;;;;35.02;49.41;100366.72;5063396;28;65981;-41
2022/03/15 08:16:09;;;;;;;5.25;4.80;;;;;;;35.09;48.97;100371.97;5076995;28;70115;-41
2022/03/15 08:18:40;;;;;;;4.90;4.53;;;;;;;34.97;49.50;100355.78;5078196;27;66371;-41
2022/03/15 08:21:10;;;;;;;5.03;4.60;;;;;;;35.07;49.45;100363.22;5079867;28;70096;-40
2022/03/15 08:23:41;;;;;;;6.05;4.32;;;;;;;35.01;48.88;100354.16;5079720;28;66616;-40
2022/03/15 08:26:14;;;;;;;5.17;4.67;;;;;;;35.14;49.18;100374.72;5081782;28;69986;-41
2022/03/15 08:28:48;;;;;;;6.60;4.43;;;;;;;35.09;49.07;100355.63;5080519;28;65325;-40
2022/03/15 08:31:19;;;;;;;5.15;4.75;;;;;;;35.21;49.32;100374.50;5077322;28;70051;-42
2022/03/15 08:33:49;;;;;;;8.67;4.53;;;;;;;35.13;49.01;100363.00;5081739;27;66559;-45
2022/03/15 08:36:21;;;;;;;4.88;4.38;;;;;;;35.21;49.05;100369.03;5079906;28;70389;-42
2022/03/15 08:38:52;;;;;;;4.72;4.18;;;;;;;35.25;48.76;100370.19;5079272;28;65157;-42
2022/03/15 08:41:23;;;;;;;4.05;3.75;;;;;;;35.33;48.44;100361.50;5095141;27;70125;-42
2022/03/15 08:43:53;;;;;;;4.88;4.10;;;;;;;35.35;48.54;100376.53;5079942;28;66699;-42
2022/03/15 08:46:26;;;;;;;7.40;4.07;;;;;;;35.36;48.94;100371.88;5077568;28;69909;-42
2022/03/15 08:48:57;;;;;;;4.43;3.80;;;;;;;35.40;48.44;100366.72;5080535;28;65810;-42
2022/03/15 08:51:28;;;;;;;3.90;3.53;;;;;;;35.42;48.59;100357.19;5078223;28;70152;-41
2022/03/15 08:54:00;;;;;;;5.57;3.23;;;;;;;35.45;48.47;100364.84;5080423;28;66237;-41
2022/03/15 08:56:32;;;;;;;4.40;3.97;;;;;;;35.48;48.62;100363.50;5067623;28;70441;-41
2022/03/15 08:59:02;;;;;;;3.58;3.28;;;;;;;35.53;48.25;100364.34;5060967;28;66797;-41
2022/03/15 09:01:33;;;;;;;4.73;3.70;;;;;;;35.51;48.64;100371.97;5071046;28;70844;-41
2022/03/15 09:04:04;;;;;;;3.95;3.65;;;;;;;35.55;48.07;100373.09;5068577;28;66365;-41
2022/03/15 09:06:36;;;;;;;5.72;3.90;;;;;;;35.57;48.09;100379.13;5063727;28;69485;-41
2022/03/15 09:09:06;;;;;;;4.45;3.80;;;;;;;35.57;48.33;100379.13;5061162;28;66334;-41
2022/03/15 09:11:37;;;;;;;4.00;3.30;;;;;;;35.63;48.43;100385.41;5071678;28;70089;-42
2022/03/15 09:14:07;;;;;;;3.53;3.20;;;;;;;35.66;47.93;100381.34;5067450;28;66476;-41
2022/03/15 09:16:39;;;;;;;3.55;3.25;;;;;;;35.68;47.82;100390.09;5081048;28;70139;-41
2022/03/15 09:19:27;;;;;;;4.03;3.70;;;;;;;35.68;48.34;100388.19;5061004;28;65272;-41
2022/03/15 09:22:01;;;;;;;4.40;4.10;;;;;;;35.66;48.45;100375.88;5075433;28;70389;-42
2022/03/15 09:24:33;;;;;;;3.90;3.60;;;;;;;35.69;48.20;100375.34;5067006;28;66267;-42
2022/03/15 09:27:03;;;;;;;;;;;;;;;35.42;48.22;100379.00;5082303;28;69280;-41
2022/03/15 09:29:36;;;;;;;4.55;4.18;;;;;;;35.65;48.21;100371.53;5067551;28;66602;-42
2022/03/15 09:32:08;;;;;;;4.50;4.10;;;;;;;35.58;48.12;100358.13;5074972;28;70578;-41
2022/03/15 09:34:39;;;;;;;4.25;3.70;;;;;;;35.70;47.64;100387.94;5067349;28;65450;-41
2022/03/15 09:37:12;;;;;;;3.85;3.53;;;;;;;35.69;47.95;100386.25;5081431;28;70038;-41
2022/03/15 09:39:45;;;;;;;4.20;3.80;;;;;;;35.65;47.86;100376.97;5066555;28;65660;-41
2022/03/15 09:42:19;;;;;;;4.32;3.72;;;;;;;35.63;47.42;100373.69;5081129;28;70386;-41
2022/03/15 09:45:07;;;;;;;5.05;3.55;;;;;;;35.64;47.68;100384.34;5068940;28;65257;-41
2022/03/15 09:47:40;;;;;;;4.90;3.35;;;;;;;35.45;48.10;100348.47;5081227;27;69770;-40
2022/03/15 09:50:10;;;;;;;4.28;3.95;;;;;;;35.65;47.82;100394.16;5080295;28;65688;-41
2022/03/15 09:52:41;;;;;;;4.22;3.83;;;;;;;35.67;48.16;100399.38;5066304;28;69542;-41
2022/03/15 09:55:12;;;;;;;4.05;3.75;;;;;;;35.61;47.88;100384.88;5063272;28;66364;-41
2022/03/15 09:57:43;;;;;;;4.47;4.07;;;;;;;35.36;48.14;100355.53;5070390;28;71419;-42
2022/03/15 10:00:16;;;;;;;4.60;4.30;;;;;;;35.54;47.82;100389.72;5076570;27;65273;-41
2022/03/15 10:02:47;;;;;;;4.53;4.13;;;;;;;35.62;47.79;100412.97;5069432;28;69649;-42
2022/03/15 10:05:19;;;;;;;4.45;4.15;;;;;;;35.60;47.88;100404.22;5064992;28;65273;-42
2022/03/15 10:07:50;;;;;;;4.33;4.03;;;;;;;35.60;48.36;100420.59;5071494;28;70452;-41
2022/03/15 10:10:23;;;;;;;7.60;4.53;;;;;;;35.60;48.11;100420.59;5075717;28;66217;-41
2022/03/15 10:12:53;;;;;;;7.40;4.38;;;;;;;35.57;48.09;100420.03;5060101;28;69848;-41
2022/03/15 10:15:26;;;;;;;;;;;;;;;35.30;48.92;100416.53;5043274;28;65360;-41
2022/03/15 10:18:04;;;;;;;4.00;3.70;;;;;;;35.54;48.47;100412.34;5060168;27;70041;-43
2022/03/15 10:20:42;;;;;;;4.78;3.60;;;;;;;35.52;48.25;100420.00;5074554;27;65947;-41
2022/03/15 10:23:16;;;;;;;4.57;4.28;;;;;;;35.53;48.35;100421.63;5069976;28;70407;-41
2022/03/15 10:25:50;;;;;;;5.75;3.95;;;;;;;35.52;48.62;100425.44;5061912;28;64952;-41
2022/03/15 10:28:22;;;;;;;7.30;4.18;;;;;;;35.46;48.21;100421.03;5074205;28;70545;-41
2022/03/15 10:30:53;;;;;;;6.53;4.13;;;;;;;35.47;48.33;100427.31;5071672;28;65542;-41
2022/03/15 10:33:26;;;;;;;4.40;4.10;;;;;;;35.46;48.22;100439.31;5077461;28;70586;-42
2022/03/15 10:35:57;;;;;;;8.30;5.07;;;;;;;35.29;49.35;100439.44;5063113;28;65687;-41
2022/03/15 10:38:28;;;;;;;8.18;4.40;;;;;;;34.88;51.05;100437.19;5068896;28;69970;-42
2022/03/15 10:41:02;;;;;;;8.45;6.13;;;;;;;34.40;52.29;100386.25;5073244;28;66720;-42
2022/03/15 10:43:33;;;;;;;8.48;5.47;;;;;;;34.54;52.41;100436.53;5068294;28;70274;-42
2022/03/15 10:46:21;;;;;;;7.47;6.33;;;;;;;34.17;52.65;100409.97;5076213;28;66157;-42
2022/03/15 10:49:03;;;;;;;13.43;6.03;;;;;;;34.21;52.26;100442.94;5071003;28;70333;-41
2022/03/15 10:51:36;;;;;;;;;;;;;;;33.76;53.23;100438.53;5081189;27;65588;-42
2022/03/15 10:54:08;;;;;;;8.73;5.35;;;;;;;33.97;52.56;100431.47;5066921;28;69066;-42
2022/03/15 10:56:40;;;;;;;13.57;5.22;;;;;;;33.87;53.19;100434.03;5064576;28;66567;-41
2022/03/15 10:59:15;;;;;;;;;;;;;;;33.53;54.04;100456.69;5071212;28;69592;-41
2022/03/15 11:01:48;;;;;;;13.07;6.47;;;;;;;33.65;53.60;100440.25;5064383;28;65926;-43
2022/03/15 11:04:21;;;;;;;8.18;7.32;;;;;;;33.70;53.89;100453.13;5067564;28;70401;-41
2022/03/15 11:06:52;;;;;;;8.27;7.43;;;;;;;33.62;53.19;100451.66;5069376;28;65947;-41
2022/03/15 11:09:36;;;;;;;9.93;7.57;;;;;;;33.56;53.36;100441.78;5069304;28;69479;-41
2022/03/15 11:12:09;;;;;;;10.57;6.75;;;;;;;33.45;53.46;100438.03;5076076;28;65722;-41
2022/03/15 11:14:47;;;;;;;8.60;7.68;;;;;;;33.37;53.68;100438.44;5067738;28;70306;-41
2022/03/15 11:17:25;;;;;;;7.47;6.75;;;;;;;33.31;53.82;100436.72;5066336;28;66460;-41
2022/03/15 11:20:01;;;;;;;10.57;6.53;;;;;;;33.21;53.98;100445.56;5068915;28;70157;-42
2022/03/15 11:22:35;;;;;;;13.65;7.85;;;;;;;33.20;54.42;100460.19;5072928;28;66388;-42
2022/03/15 11:25:15;;;;;;;14.25;7.50;;;;;;;33.12;54.78;100458.69;5059616;28;70214;-41
2022/03/15 11:27:47;;;;;;;7.97;7.28;;;;;;;32.76;54.96;100405.59;5073388;28;66818;-42
2022/03/15 11:30:20;;;;;;;15.27;10.05;;;;;;;32.61;55.25;100380.91;5071866;28;69485;-41
2022/03/15 11:32:54;;;;;;;11.43;10.23;;;;;;;33.05;55.42;100473.53;5065364;28;66616;-42
2022/03/15 11:35:25;;;;;;;10.00;8.65;;;;;;;32.93;55.57;100471.69;5078347;27;70383;-43
2022/03/15 11:38:00;;;;;;;14.10;8.55;;;;;;;32.91;56.15;100473.81;5078423;28;65789;-42
2022/03/15 11:40:31;;;;;;;10.63;7.82;;;;;;;32.83;56.32;100466.06;5073744;28;70021;-41
2022/03/15 11:43:50;;;;;;;10.70;7.40;;;;;;;32.40;56.71;100440.22;5067493;28;66130;-42
2022/03/15 11:46:35;;;;;;;8.48;7.05;;;;;;;32.80;56.65;100507.28;5074359;27;69411;-43
2022/03/15 11:49:30;;;;;;;8.07;6.85;;;;;;;32.70;57.37;100501.66;5072139;28;66618;-42
2022/03/15 11:52:19;;;;;;;16.25;7.70;;;;;;;32.28;58.10;100436.72;5062937;28;69881;-44